1994 ROSA (1994282N17247)


On this page: IBTrACS data - Map and Plots - Positions - Intensities - Original source data

Summary

Start Oct 8
End Oct 15
Basins EP
NA
LMI 90 kt
Sources hurdat_epa
jtwc_ep
atcf
In WMO? Yes
Previous storm 1995 A19495 (SI)
Previous in basin 1994 SETH (WP)
Concurrent storms 1994 SETH (WP)
1994 ROSA (EP)
1994 VERNE (WP)
1994 TERESA (WP)
Next in basin 1994 WILDA (WP)
Next storm 1994 VERNE (WP)

top of page IBTrACS Data: File Access

top of page HURSAT Data: File Access

Image of storm

top of page Plots:

Map of storm track will not appear if FTP is down
Time series of cyclone Maximum Sustained Wind will not appear if FTP is down
Time series of cyclone Minimum Central Pressure will not appear if FTP is down

top of page Track Data:Position

hurdat_epa jtwc_ep atcf
Date Lat Lon Lat Lon Lat Lon
1994-10-08 12:00:00 17.2 -113.3 17.2 -113.3 17.2 -113.3
1994-10-08 18:00:00 17.2 -113.0 17.2 -113.0 17.2 -113.0
1994-10-09 00:00:00 17.2 -112.8 17.2 -112.8 17.2 -112.8
1994-10-09 06:00:00 17.2 -112.7 17.2 -112.7 17.2 -112.7
1994-10-09 12:00:00 17.2 -112.6 17.2 -112.6 17.2 -112.6
1994-10-09 18:00:00 17.1 -112.4 17.1 -112.4 17.1 -112.4
1994-10-10 00:00:00 17.0 -112.1 17.0 -112.1 17.0 -112.1
1994-10-10 06:00:00 16.8 -111.4 16.8 -111.4 16.8 -111.4
1994-10-10 12:00:00 16.6 -110.5 16.6 -110.5 16.6 -110.5
1994-10-10 18:00:00 16.8 -109.7 16.6 -109.7 16.8 -109.7
1994-10-11 00:00:00 16.8 -109.3 16.8 -109.3 16.8 -109.3
1994-10-11 06:00:00 16.9 -109.2 16.9 -109.2 16.9 -109.2
1994-10-11 12:00:00 16.9 -108.9 16.9 -108.9 16.9 -108.9
1994-10-11 18:00:00 16.9 -108.6 16.9 -108.6 16.9 -108.6
1994-10-12 00:00:00 17.0 -108.4 17.0 -108.4 17.0 -108.4
1994-10-12 06:00:00 17.1 -108.3 17.1 -108.3 17.1 -108.3
1994-10-12 12:00:00 17.2 -108.1 17.2 -108.1 17.2 -108.1
1994-10-12 18:00:00 17.4 -108.1 17.4 -108.1 17.4 -108.1
1994-10-13 00:00:00 17.6 -108.1 17.6 -108.1 17.6 -108.1
1994-10-13 06:00:00 17.9 -108.1 17.9 -108.1 17.9 -108.1
1994-10-13 12:00:00 18.4 -108.0 18.4 -108.0 18.4 -108.0
1994-10-13 18:00:00 18.8 -107.9 18.8 -107.9 18.8 -107.9
1994-10-14 00:00:00 19.8 -107.5 19.8 -107.5 19.8 -107.5
1994-10-14 06:00:00 21.2 -106.8 21.2 -106.8 21.2 -106.8
1994-10-14 12:00:00 23.0 -105.5 23.0 -105.5 23.0 -105.5
hurdat_epa jtwc_ep atcf
1994-10-14 18:00:00 25.3 -103.8 25.3 -103.8 25.3 -103.8
1994-10-15 00:00:00 28.0 -101.5 28.0 -101.5 28.0 -101.5

top of pageTrack Data:Intensity

hurdat_epa jtwc_ep atcf
Date Wind Pres Wind Pres Wind Pres
1994-10-08 12:00:00 25. 1009. 25. 25. 1009.
1994-10-08 18:00:00 25. 1009. 25. 25. 1009.
1994-10-09 00:00:00 30. 1009. 30. 30. 1009.
1994-10-09 06:00:00 30. 1009. 30. 30. 1009.
1994-10-09 12:00:00 25. 1009. 25. 25. 1009.
1994-10-09 18:00:00 25. 1009. 25. 25. 1009.
1994-10-10 00:00:00 25. 1009. 25. 25. 1009.
1994-10-10 06:00:00 25. 1009. 25. 25. 1009.
1994-10-10 12:00:00 25. 1009. 25. 25. 1009.
1994-10-10 18:00:00 25. 1009. 25. 25. 1009.
1994-10-11 00:00:00 25. 1009. 25. 25. 1009.
1994-10-11 06:00:00 30. 1009. 30. 30. 1009.
1994-10-11 12:00:00 30. 1009. 30. 30. 1009.
1994-10-11 18:00:00 35. 1005. 35. 35. 1005.
1994-10-12 00:00:00 45. 1000. 45. 45. 1000.
1994-10-12 06:00:00 55. 994. 55. 55. 994.
1994-10-12 12:00:00 60. 990. 60. 60. 990.
1994-10-12 18:00:00 65. 985. 65. 65. 985.
1994-10-13 00:00:00 70. 982. 70. 70. 982.
1994-10-13 06:00:00 75. 979. 75. 75. 979.
1994-10-13 12:00:00 80. 978. 80. 80. 978.
1994-10-13 18:00:00 85. 977. 85. 85. 977.
1994-10-14 00:00:00 90. 975. 90. 90. 975.
1994-10-14 06:00:00 90. 974. 90. 90. 974.
1994-10-14 12:00:00 75. 980. 75. 75. 980.
hurdat_epa jtwc_ep atcf
1994-10-14 18:00:00 45. 1000. 45. 45. 1000.
1994-10-15 00:00:00 25. 1010. 25. 25. 1010.

top of page Links to source data

Source Source file Format
hurdat_epa tracks1949to2011_epa.html:642:ROSA HURDAT
jtwc_ep bep191994.txt ATCF
atcf bep191994.dat ATCF